sensor_id;sensor_type;location;lat;lon;timestamp;temperature;humidity
16301;DHT22;8258;51.020;4.248;2023-03-24T00:01:01;12.70;99.90
16301;DHT22;8258;51.020;4.248;2023-03-24T00:03:29;12.60;99.90
16301;DHT22;8258;51.020;4.248;2023-03-24T00:05:57;12.50;99.90
16301;DHT22;8258;51.020;4.248;2023-03-24T00:08:26;12.50;99.90
16301;DHT22;8258;51.020;4.248;2023-03-24T00:10:58;12.50;99.90
16301;DHT22;8258;51.020;4.248;2023-03-24T00:13:26;12.50;99.90
16301;DHT22;8258;51.020;4.248;2023-03-24T00:15:53;12.50;99.90
16301;DHT22;8258;51.020;4.248;2023-03-24T00:18:22;12.50;99.90
16301;DHT22;8258;51.020;4.248;2023-03-24T00:20:51;12.40;99.90
16301;DHT22;8258;51.020;4.248;2023-03-24T00:23:23;12.40;99.90
16301;DHT22;8258;51.020;4.248;2023-03-24T00:25:59;12.40;99.90
16301;DHT22;8258;51.020;4.248;2023-03-24T00:28:27;12.30;99.90
16301;DHT22;8258;51.020;4.248;2023-03-24T00:30:56;12.30;99.90
16301;DHT22;8258;51.020;4.248;2023-03-24T00:33:24;12.30;99.90
16301;DHT22;8258;51.020;4.248;2023-03-24T00:35:51;12.40;99.90
16301;DHT22;8258;51.020;4.248;2023-03-24T00:38:19;12.40;99.90
16301;DHT22;8258;51.020;4.248;2023-03-24T00:40:46;12.50;99.90
16301;DHT22;8258;51.020;4.248;2023-03-24T00:43:15;12.50;99.90
16301;DHT22;8258;51.020;4.248;2023-03-24T00:45:42;12.50;99.90
16301;DHT22;8258;51.020;4.248;2023-03-24T00:48:11;12.60;99.90
16301;DHT22;8258;51.020;4.248;2023-03-24T00:50:43;12.70;99.90
16301;DHT22;8258;51.020;4.248;2023-03-24T00:53:10;12.70;99.90
16301;DHT22;8258;51.020;4.248;2023-03-24T00:55:40;12.70;99.90
16301;DHT22;8258;51.020;4.248;2023-03-24T00:58:07;12.80;99.90
16301;DHT22;8258;51.020;4.248;2023-03-24T01:00:34;12.80;99.90
16301;DHT22;8258;51.020;4.248;2023-03-24T01:03:07;12.90;99.90
16301;DHT22;8258;51.020;4.248;2023-03-24T01:05:42;12.90;99.90
16301;DHT22;8258;51.020;4.248;2023-03-24T01:08:13;12.90;99.90
16301;DHT22;8258;51.020;4.248;2023-03-24T01:10:40;12.90;99.90
16301;DHT22;8258;51.020;4.248;2023-03-24T01:13:15;12.90;99.90
16301;DHT22;8258;51.020;4.248;2023-03-24T01:15:43;12.90;99.90
16301;DHT22;8258;51.020;4.248;2023-03-24T01:18:11;12.80;99.90
16301;DHT22;8258;51.020;4.248;2023-03-24T01:20:39;12.90;99.90
16301;DHT22;8258;51.020;4.248;2023-03-24T01:23:13;12.80;99.90
16301;DHT22;8258;51.020;4.248;2023-03-24T01:25:41;12.60;99.90
16301;DHT22;8258;51.020;4.248;2023-03-24T01:28:10;12.50;99.90
16301;DHT22;8258;51.020;4.248;2023-03-24T01:30:38;12.50;99.90
16301;DHT22;8258;51.020;4.248;2023-03-24T01:33:05;12.50;99.90
16301;DHT22;8258;51.020;4.248;2023-03-24T01:35:34;12.50;99.90
16301;DHT22;8258;51.020;4.248;2023-03-24T01:38:05;12.50;99.90
16301;DHT22;8258;51.020;4.248;2023-03-24T01:40:36;12.50;99.90
16301;DHT22;8258;51.020;4.248;2023-03-24T01:43:04;12.40;99.90
16301;DHT22;8258;51.020;4.248;2023-03-24T01:45:43;12.40;99.90
16301;DHT22;8258;51.020;4.248;2023-03-24T01:48:13;12.50;99.90
16301;DHT22;8258;51.020;4.248;2023-03-24T01:50:43;12.50;99.90
16301;DHT22;8258;51.020;4.248;2023-03-24T01:53:12;12.50;99.90
16301;DHT22;8258;51.020;4.248;2023-03-24T01:55:42;12.50;99.90
16301;DHT22;8258;51.020;4.248;2023-03-24T01:58:11;12.40;99.90
16301;DHT22;8258;51.020;4.248;2023-03-24T02:00:38;12.20;99.90
16301;DHT22;8258;51.020;4.248;2023-03-24T02:03:09;12.00;99.90
16301;DHT22;8258;51.020;4.248;2023-03-24T02:05:38;11.80;99.90
16301;DHT22;8258;51.020;4.248;2023-03-24T02:08:09;11.70;99.90
16301;DHT22;8258;51.020;4.248;2023-03-24T02:10:42;11.70;99.90
16301;DHT22;8258;51.020;4.248;2023-03-24T02:13:09;11.60;99.90
16301;DHT22;8258;51.020;4.248;2023-03-24T02:15:42;11.50;99.90
16301;DHT22;8258;51.020;4.248;2023-03-24T02:18:15;11.50;99.90
16301;DHT22;8258;51.020;4.248;2023-03-24T02:24:12;11.40;99.90
16301;DHT22;8258;51.020;4.248;2023-03-24T02:26:53;11.30;99.90
16301;DHT22;8258;51.020;4.248;2023-03-24T02:29:59;11.20;99.90
16301;DHT22;8258;51.020;4.248;2023-03-24T02:32:51;11.10;99.90
16301;DHT22;8258;51.020;4.248;2023-03-24T02:38:39;10.90;99.90
16301;DHT22;8258;51.020;4.248;2023-03-24T02:41:14;10.90;99.90
16301;DHT22;8258;51.020;4.248;2023-03-24T02:43:51;10.90;99.90
16301;DHT22;8258;51.020;4.248;2023-03-24T02:46:26;11.00;99.90
16301;DHT22;8258;51.020;4.248;2023-03-24T02:49:08;11.00;99.90
16301;DHT22;8258;51.020;4.248;2023-03-24T02:51:41;10.90;99.90
16301;DHT22;8258;51.020;4.248;2023-03-24T02:54:15;10.80;99.90
16301;DHT22;8258;51.020;4.248;2023-03-24T02:56:50;10.80;99.90
16301;DHT22;8258;51.020;4.248;2023-03-24T02:59:22;10.70;99.90
16301;DHT22;8258;51.020;4.248;2023-03-24T03:01:59;10.60;99.90
16301;DHT22;8258;51.020;4.248;2023-03-24T03:04:30;10.50;99.90
16301;DHT22;8258;51.020;4.248;2023-03-24T03:07:01;10.50;99.90
16301;DHT22;8258;51.020;4.248;2023-03-24T03:09:31;10.40;99.90
16301;DHT22;8258;51.020;4.248;2023-03-24T03:12:09;10.40;99.90
16301;DHT22;8258;51.020;4.248;2023-03-24T03:14:39;10.30;99.90
16301;DHT22;8258;51.020;4.248;2023-03-24T03:17:11;10.30;99.90
16301;DHT22;8258;51.020;4.248;2023-03-24T03:19:40;10.40;99.90
16301;DHT22;8258;51.020;4.248;2023-03-24T03:22:14;10.40;99.90
16301;DHT22;8258;51.020;4.248;2023-03-24T03:24:44;10.40;99.90
16301;DHT22;8258;51.020;4.248;2023-03-24T03:27:19;10.40;99.90
16301;DHT22;8258;51.020;4.248;2023-03-24T03:29:51;10.40;99.90
16301;DHT22;8258;51.020;4.248;2023-03-24T03:32:22;10.40;99.90
16301;DHT22;8258;51.020;4.248;2023-03-24T03:34:55;10.40;99.90
16301;DHT22;8258;51.020;4.248;2023-03-24T03:37:31;10.40;99.90
16301;DHT22;8258;51.020;4.248;2023-03-24T03:40:04;10.40;99.90
16301;DHT22;8258;51.020;4.248;2023-03-24T03:42:36;10.40;99.90
16301;DHT22;8258;51.020;4.248;2023-03-24T03:45:03;10.50;99.90
16301;DHT22;8258;51.020;4.248;2023-03-24T03:47:31;10.50;99.90
16301;DHT22;8258;51.020;4.248;2023-03-24T03:49:58;10.50;99.90
16301;DHT22;8258;51.020;4.248;2023-03-24T03:52:25;10.50;99.90
16301;DHT22;8258;51.020;4.248;2023-03-24T03:54:53;10.50;99.90
16301;DHT22;8258;51.020;4.248;2023-03-24T03:57:20;10.50;99.90
16301;DHT22;8258;51.020;4.248;2023-03-24T03:59:49;10.50;99.90
16301;DHT22;8258;51.020;4.248;2023-03-24T04:02:28;10.50;99.90
16301;DHT22;8258;51.020;4.248;2023-03-24T04:05:28;10.50;99.90
16301;DHT22;8258;51.020;4.248;2023-03-24T04:08:18;10.50;99.90
16301;DHT22;8258;51.020;4.248;2023-03-24T04:11:24;10.50;99.90
16301;DHT22;8258;51.020;4.248;2023-03-24T04:14:03;10.50;99.90
16301;DHT22;8258;51.020;4.248;2023-03-24T04:16:42;10.50;99.90
16301;DHT22;8258;51.020;4.248;2023-03-24T04:19:21;10.50;99.90
16301;DHT22;8258;51.020;4.248;2023-03-24T04:22:03;10.50;99.90
16301;DHT22;8258;51.020;4.248;2023-03-24T04:24:42;10.50;99.90
16301;DHT22;8258;51.020;4.248;2023-03-24T04:27:21;10.50;99.90
16301;DHT22;8258;51.020;4.248;2023-03-24T04:29:55;10.50;99.90
16301;DHT22;8258;51.020;4.248;2023-03-24T04:32:31;10.50;99.90
16301;DHT22;8258;51.020;4.248;2023-03-24T04:35:05;10.50;99.90
16301;DHT22;8258;51.020;4.248;2023-03-24T04:37:35;10.50;99.90
16301;DHT22;8258;51.020;4.248;2023-03-24T04:40:06;10.50;99.90
16301;DHT22;8258;51.020;4.248;2023-03-24T04:42:37;10.60;99.90
16301;DHT22;8258;51.020;4.248;2023-03-24T04:45:06;10.50;99.90
16301;DHT22;8258;51.020;4.248;2023-03-24T04:47:38;10.40;99.90
16301;DHT22;8258;51.020;4.248;2023-03-24T04:50:09;10.30;99.90
16301;DHT22;8258;51.020;4.248;2023-03-24T04:52:36;10.30;99.90
16301;DHT22;8258;51.020;4.248;2023-03-24T04:55:25;10.30;99.90
16301;DHT22;8258;51.020;4.248;2023-03-24T04:57:53;10.30;99.90
16301;DHT22;8258;51.020;4.248;2023-03-24T05:00:20;10.30;99.90
16301;DHT22;8258;51.020;4.248;2023-03-24T05:02:48;10.30;99.90
16301;DHT22;8258;51.020;4.248;2023-03-24T05:05:16;10.20;99.90
16301;DHT22;8258;51.020;4.248;2023-03-24T05:07:43;10.10;99.90
16301;DHT22;8258;51.020;4.248;2023-03-24T05:10:10;10.00;99.90
16301;DHT22;8258;51.020;4.248;2023-03-24T05:12:37;10.00;99.90
16301;DHT22;8258;51.020;4.248;2023-03-24T05:15:05;9.90;99.90
16301;DHT22;8258;51.020;4.248;2023-03-24T05:17:32;9.90;99.90
16301;DHT22;8258;51.020;4.248;2023-03-24T05:20:00;9.80;99.90
16301;DHT22;8258;51.020;4.248;2023-03-24T05:22:31;9.70;99.90
16301;DHT22;8258;51.020;4.248;2023-03-24T05:24:58;9.70;99.90
16301;DHT22;8258;51.020;4.248;2023-03-24T05:27:25;9.70;99.90
16301;DHT22;8258;51.020;4.248;2023-03-24T05:29:52;9.80;99.90
16301;DHT22;8258;51.020;4.248;2023-03-24T05:32:19;9.90;99.90
16301;DHT22;8258;51.020;4.248;2023-03-24T05:34:46;9.90;99.90
16301;DHT22;8258;51.020;4.248;2023-03-24T05:37:14;9.90;99.90
16301;DHT22;8258;51.020;4.248;2023-03-24T05:39:42;9.90;99.90
16301;DHT22;8258;51.020;4.248;2023-03-24T05:42:09;9.80;99.90
16301;DHT22;8258;51.020;4.248;2023-03-24T05:44:36;9.70;99.90
16301;DHT22;8258;51.020;4.248;2023-03-24T05:47:03;9.60;99.90
16301;DHT22;8258;51.020;4.248;2023-03-24T05:49:30;9.60;99.90
16301;DHT22;8258;51.020;4.248;2023-03-24T05:57:12;9.60;99.90
16301;DHT22;8258;51.020;4.248;2023-03-24T05:59:40;9.60;99.90
16301;DHT22;8258;51.020;4.248;2023-03-24T06:02:07;9.60;99.90
16301;DHT22;8258;51.020;4.248;2023-03-24T06:04:35;9.60;99.90
16301;DHT22;8258;51.020;4.248;2023-03-24T06:07:03;9.60;99.90
16301;DHT22;8258;51.020;4.248;2023-03-24T06:12:05;9.50;99.90
16301;DHT22;8258;51.020;4.248;2023-03-24T06:14:34;9.50;99.90
16301;DHT22;8258;51.020;4.248;2023-03-24T06:17:01;9.50;99.90
16301;DHT22;8258;51.020;4.248;2023-03-24T06:19:28;9.40;99.90
16301;DHT22;8258;51.020;4.248;2023-03-24T06:21:57;9.50;99.90
16301;DHT22;8258;51.020;4.248;2023-03-24T06:24:27;9.60;99.90
16301;DHT22;8258;51.020;4.248;2023-03-24T06:26:54;9.90;99.90
16301;DHT22;8258;51.020;4.248;2023-03-24T06:29:26;10.40;99.90
16301;DHT22;8258;51.020;4.248;2023-03-24T06:31:55;10.60;99.90
16301;DHT22;8258;51.020;4.248;2023-03-24T06:34:22;10.70;99.90
16301;DHT22;8258;51.020;4.248;2023-03-24T06:36:50;10.50;99.90
16301;DHT22;8258;51.020;4.248;2023-03-24T06:39:17;10.40;99.90
16301;DHT22;8258;51.020;4.248;2023-03-24T06:41:44;10.30;99.90
16301;DHT22;8258;51.020;4.248;2023-03-24T06:44:11;10.40;99.90
16301;DHT22;8258;51.020;4.248;2023-03-24T06:46:38;11.00;99.90
16301;DHT22;8258;51.020;4.248;2023-03-24T06:49:07;11.00;99.90
16301;DHT22;8258;51.020;4.248;2023-03-24T06:51:40;10.80;99.90
16301;DHT22;8258;51.020;4.248;2023-03-24T06:54:07;10.70;99.90
16301;DHT22;8258;51.020;4.248;2023-03-24T06:56:34;10.50;99.90
16301;DHT22;8258;51.020;4.248;2023-03-24T06:59:01;10.50;99.90
16301;DHT22;8258;51.020;4.248;2023-03-24T07:01:28;10.90;99.90
16301;DHT22;8258;51.020;4.248;2023-03-24T07:03:55;11.10;99.90
16301;DHT22;8258;51.020;4.248;2023-03-24T07:06:24;11.10;99.90
16301;DHT22;8258;51.020;4.248;2023-03-24T07:08:51;11.20;99.90
16301;DHT22;8258;51.020;4.248;2023-03-24T07:11:18;11.20;99.90
16301;DHT22;8258;51.020;4.248;2023-03-24T07:13:45;11.30;99.90
16301;DHT22;8258;51.020;4.248;2023-03-24T07:16:12;11.50;99.90
16301;DHT22;8258;51.020;4.248;2023-03-24T07:18:39;11.40;99.90
16301;DHT22;8258;51.020;4.248;2023-03-24T07:21:06;11.60;99.90
16301;DHT22;8258;51.020;4.248;2023-03-24T07:23:34;11.80;99.90
16301;DHT22;8258;51.020;4.248;2023-03-24T07:26:01;11.70;99.90
16301;DHT22;8258;51.020;4.248;2023-03-24T07:28:31;11.40;99.90
16301;DHT22;8258;51.020;4.248;2023-03-24T07:31:01;11.40;99.90
16301;DHT22;8258;51.020;4.248;2023-03-24T07:33:28;11.30;99.90
16301;DHT22;8258;51.020;4.248;2023-03-24T07:35:55;11.50;99.90
16301;DHT22;8258;51.020;4.248;2023-03-24T07:38:22;11.70;99.90
16301;DHT22;8258;51.020;4.248;2023-03-24T07:40:51;12.00;99.90
16301;DHT22;8258;51.020;4.248;2023-03-24T07:43:18;11.80;99.90
16301;DHT22;8258;51.020;4.248;2023-03-24T07:45:45;11.60;99.90
16301;DHT22;8258;51.020;4.248;2023-03-24T07:48:12;11.60;99.90
16301;DHT22;8258;51.020;4.248;2023-03-24T07:50:39;11.90;99.90
16301;DHT22;8258;51.020;4.248;2023-03-24T07:53:06;12.60;99.90
16301;DHT22;8258;51.020;4.248;2023-03-24T07:55:34;13.50;99.90
16301;DHT22;8258;51.020;4.248;2023-03-24T07:58:03;14.20;99.90
16301;DHT22;8258;51.020;4.248;2023-03-24T08:00:30;14.40;99.90
16301;DHT22;8258;51.020;4.248;2023-03-24T08:02:58;14.30;99.90
16301;DHT22;8258;51.020;4.248;2023-03-24T08:05:28;14.80;99.90
16301;DHT22;8258;51.020;4.248;2023-03-24T08:07:55;15.00;99.90
16301;DHT22;8258;51.020;4.248;2023-03-24T08:10:24;15.10;99.90
16301;DHT22;8258;51.020;4.248;2023-03-24T08:12:55;14.70;99.90
16301;DHT22;8258;51.020;4.248;2023-03-24T08:15:24;15.00;99.90
16301;DHT22;8258;51.020;4.248;2023-03-24T08:17:52;14.80;99.90
16301;DHT22;8258;51.020;4.248;2023-03-24T08:20:21;14.50;99.90
16301;DHT22;8258;51.020;4.248;2023-03-24T08:22:50;14.90;99.90
16301;DHT22;8258;51.020;4.248;2023-03-24T08:25:20;14.60;99.90
16301;DHT22;8258;51.020;4.248;2023-03-24T08:27:47;14.40;99.90
16301;DHT22;8258;51.020;4.248;2023-03-24T08:30:16;14.50;99.90
16301;DHT22;8258;51.020;4.248;2023-03-24T08:32:46;14.70;99.90
16301;DHT22;8258;51.020;4.248;2023-03-24T08:35:16;15.10;99.90
16301;DHT22;8258;51.020;4.248;2023-03-24T08:37:44;15.40;99.90
16301;DHT22;8258;51.020;4.248;2023-03-24T08:40:13;15.80;99.90
16301;DHT22;8258;51.020;4.248;2023-03-24T08:42:44;15.70;99.90
16301;DHT22;8258;51.020;4.248;2023-03-24T08:45:13;15.30;99.90
16301;DHT22;8258;51.020;4.248;2023-03-24T08:47:40;15.20;99.90
16301;DHT22;8258;51.020;4.248;2023-03-24T08:50:09;16.10;99.90
16301;DHT22;8258;51.020;4.248;2023-03-24T08:52:36;15.70;99.90
16301;DHT22;8258;51.020;4.248;2023-03-24T08:55:03;14.50;99.90
16301;DHT22;8258;51.020;4.248;2023-03-24T08:57:30;14.10;99.90
16301;DHT22;8258;51.020;4.248;2023-03-24T08:59:57;14.20;99.90
16301;DHT22;8258;51.020;4.248;2023-03-24T09:02:24;13.80;99.90
16301;DHT22;8258;51.020;4.248;2023-03-24T09:04:52;13.60;99.90
16301;DHT22;8258;51.020;4.248;2023-03-24T09:07:21;13.80;99.90
16301;DHT22;8258;51.020;4.248;2023-03-24T09:09:48;14.50;99.90
16301;DHT22;8258;51.020;4.248;2023-03-24T09:12:22;15.00;99.90
16301;DHT22;8258;51.020;4.248;2023-03-24T09:14:49;15.00;99.90
16301;DHT22;8258;51.020;4.248;2023-03-24T09:17:17;14.20;99.90
16301;DHT22;8258;51.020;4.248;2023-03-24T09:19:44;13.70;99.90
16301;DHT22;8258;51.020;4.248;2023-03-24T09:22:11;13.50;99.90
16301;DHT22;8258;51.020;4.248;2023-03-24T09:24:40;13.30;99.90
16301;DHT22;8258;51.020;4.248;2023-03-24T09:27:08;13.40;99.90
16301;DHT22;8258;51.020;4.248;2023-03-24T09:29:35;13.50;99.90
16301;DHT22;8258;51.020;4.248;2023-03-24T09:32:03;13.80;99.90
16301;DHT22;8258;51.020;4.248;2023-03-24T09:34:29;14.10;99.90
16301;DHT22;8258;51.020;4.248;2023-03-24T09:36:58;14.60;99.90
16301;DHT22;8258;51.020;4.248;2023-03-24T09:39:25;14.90;99.90
16301;DHT22;8258;51.020;4.248;2023-03-24T09:41:54;15.10;99.90
16301;DHT22;8258;51.020;4.248;2023-03-24T09:44:25;15.80;99.90
16301;DHT22;8258;51.020;4.248;2023-03-24T09:46:55;15.60;99.90
16301;DHT22;8258;51.020;4.248;2023-03-24T09:49:26;14.90;99.90
16301;DHT22;8258;51.020;4.248;2023-03-24T09:51:58;15.00;99.90
16301;DHT22;8258;51.020;4.248;2023-03-24T09:54:29;16.10;99.90
16301;DHT22;8258;51.020;4.248;2023-03-24T09:56:58;15.80;99.90
16301;DHT22;8258;51.020;4.248;2023-03-24T09:59:31;15.90;99.90
16301;DHT22;8258;51.020;4.248;2023-03-24T10:02:00;16.70;99.90
16301;DHT22;8258;51.020;4.248;2023-03-24T10:04:28;16.20;99.90
16301;DHT22;8258;51.020;4.248;2023-03-24T10:06:59;15.70;99.90
16301;DHT22;8258;51.020;4.248;2023-03-24T10:09:33;15.20;99.90
16301;DHT22;8258;51.020;4.248;2023-03-24T10:12:18;15.20;99.90
16301;DHT22;8258;51.020;4.248;2023-03-24T10:14:54;15.40;99.90
16301;DHT22;8258;51.020;4.248;2023-03-24T10:17:30;15.20;99.90
16301;DHT22;8258;51.020;4.248;2023-03-24T10:20:04;14.80;99.90
16301;DHT22;8258;51.020;4.248;2023-03-24T10:22:41;14.10;99.90
16301;DHT22;8258;51.020;4.248;2023-03-24T10:25:17;13.80;99.90
16301;DHT22;8258;51.020;4.248;2023-03-24T10:27:50;13.70;99.90
16301;DHT22;8258;51.020;4.248;2023-03-24T10:30:21;13.80;99.90
16301;DHT22;8258;51.020;4.248;2023-03-24T10:32:49;14.70;99.90
16301;DHT22;8258;51.020;4.248;2023-03-24T10:35:20;15.30;99.90
16301;DHT22;8258;51.020;4.248;2023-03-24T10:37:49;14.80;99.90
16301;DHT22;8258;51.020;4.248;2023-03-24T10:40:18;14.30;99.90
16301;DHT22;8258;51.020;4.248;2023-03-24T10:42:48;13.70;99.90
16301;DHT22;8258;51.020;4.248;2023-03-24T10:45:24;13.30;99.90
16301;DHT22;8258;51.020;4.248;2023-03-24T10:47:54;13.40;99.90
16301;DHT22;8258;51.020;4.248;2023-03-24T10:50:23;13.40;99.90
16301;DHT22;8258;51.020;4.248;2023-03-24T10:52:50;13.40;99.90
16301;DHT22;8258;51.020;4.248;2023-03-24T10:55:20;13.60;99.90
16301;DHT22;8258;51.020;4.248;2023-03-24T10:57:52;14.40;99.90
16301;DHT22;8258;51.020;4.248;2023-03-24T11:00:23;14.50;99.90
16301;DHT22;8258;51.020;4.248;2023-03-24T11:02:58;14.50;99.90
16301;DHT22;8258;51.020;4.248;2023-03-24T11:05:28;14.40;99.90
16301;DHT22;8258;51.020;4.248;2023-03-24T11:08:10;13.90;99.90
16301;DHT22;8258;51.020;4.248;2023-03-24T11:10:38;13.80;99.90
16301;DHT22;8258;51.020;4.248;2023-03-24T11:13:16;13.70;99.90
16301;DHT22;8258;51.020;4.248;2023-03-24T11:15:52;13.50;99.90
16301;DHT22;8258;51.020;4.248;2023-03-24T11:18:22;13.20;99.90
16301;DHT22;8258;51.020;4.248;2023-03-24T11:20:53;12.60;99.90
16301;DHT22;8258;51.020;4.248;2023-03-24T11:23:26;11.90;99.90
16301;DHT22;8258;51.020;4.248;2023-03-24T11:26:04;10.90;99.90
16301;DHT22;8258;51.020;4.248;2023-03-24T11:28:38;10.40;99.90
16301;DHT22;8258;51.020;4.248;2023-03-24T11:33:43;10.10;99.90
16301;DHT22;8258;51.020;4.248;2023-03-24T11:36:36;10.10;99.90
16301;DHT22;8258;51.020;4.248;2023-03-24T11:39:11;10.20;99.90
16301;DHT22;8258;51.020;4.248;2023-03-24T11:41:41;10.20;99.90
16301;DHT22;8258;51.020;4.248;2023-03-24T11:44:19;10.30;99.90
16301;DHT22;8258;51.020;4.248;2023-03-24T11:46:49;10.90;99.90
16301;DHT22;8258;51.020;4.248;2023-03-24T11:49:20;11.50;99.90
16301;DHT22;8258;51.020;4.248;2023-03-24T11:51:51;12.30;99.90
16301;DHT22;8258;51.020;4.248;2023-03-24T11:54:22;13.10;99.90
16301;DHT22;8258;51.020;4.248;2023-03-24T11:56:51;12.80;99.90
16301;DHT22;8258;51.020;4.248;2023-03-24T11:59:31;12.80;99.90
16301;DHT22;8258;51.020;4.248;2023-03-24T12:02:08;12.90;99.90
16301;DHT22;8258;51.020;4.248;2023-03-24T12:04:44;12.80;99.90
16301;DHT22;8258;51.020;4.248;2023-03-24T12:07:43;12.60;99.90
16301;DHT22;8258;51.020;4.248;2023-03-24T12:10:37;12.40;99.90
16301;DHT22;8258;51.020;4.248;2023-03-24T12:13:09;11.90;99.90
16301;DHT22;8258;51.020;4.248;2023-03-24T12:15:46;11.70;99.90
16301;DHT22;8258;51.020;4.248;2023-03-24T12:18:40;11.60;99.90
16301;DHT22;8258;51.020;4.248;2023-03-24T12:21:18;11.30;99.90
16301;DHT22;8258;51.020;4.248;2023-03-24T12:23:55;10.90;99.90
16301;DHT22;8258;51.020;4.248;2023-03-24T12:26:25;10.80;99.90
16301;DHT22;8258;51.020;4.248;2023-03-24T12:32:15;11.90;99.90
16301;DHT22;8258;51.020;4.248;2023-03-24T12:37:47;15.20;99.90
16301;DHT22;8258;51.020;4.248;2023-03-24T12:40:36;16.30;99.90
16301;DHT22;8258;51.020;4.248;2023-03-24T12:43:11;16.80;99.90
16301;DHT22;8258;51.020;4.248;2023-03-24T12:45:42;16.90;99.90
16301;DHT22;8258;51.020;4.248;2023-03-24T12:48:38;17.30;99.90
16301;DHT22;8258;51.020;4.248;2023-03-24T12:51:18;17.70;99.90
16301;DHT22;8258;51.020;4.248;2023-03-24T12:53:55;18.20;99.90
16301;DHT22;8258;51.020;4.248;2023-03-24T12:56:28;17.70;99.90
16301;DHT22;8258;51.020;4.248;2023-03-24T12:59:00;16.10;99.90
16301;DHT22;8258;51.020;4.248;2023-03-24T13:01:32;15.20;99.90
16301;DHT22;8258;51.020;4.248;2023-03-24T13:04:07;14.70;99.90
16301;DHT22;8258;51.020;4.248;2023-03-24T13:06:39;15.10;99.90
16301;DHT22;8258;51.020;4.248;2023-03-24T13:09:18;16.70;99.90
16301;DHT22;8258;51.020;4.248;2023-03-24T13:11:54;17.70;99.90
16301;DHT22;8258;51.020;4.248;2023-03-24T13:14:28;17.60;99.90
16301;DHT22;8258;51.020;4.248;2023-03-24T13:17:03;17.80;99.90
16301;DHT22;8258;51.020;4.248;2023-03-24T13:19:34;17.70;99.90
16301;DHT22;8258;51.020;4.248;2023-03-24T13:22:03;17.80;99.90
16301;DHT22;8258;51.020;4.248;2023-03-24T13:24:32;18.10;99.90
16301;DHT22;8258;51.020;4.248;2023-03-24T13:27:04;18.10;99.90
16301;DHT22;8258;51.020;4.248;2023-03-24T13:32:43;17.70;99.90
16301;DHT22;8258;51.020;4.248;2023-03-24T13:35:19;18.10;99.90
16301;DHT22;8258;51.020;4.248;2023-03-24T13:37:51;18.50;99.90
16301;DHT22;8258;51.020;4.248;2023-03-24T13:40:21;19.00;99.90
16301;DHT22;8258;51.020;4.248;2023-03-24T13:42:52;18.70;99.90
16301;DHT22;8258;51.020;4.248;2023-03-24T13:45:36;19.10;99.90
16301;DHT22;8258;51.020;4.248;2023-03-24T13:48:20;17.90;99.90
16301;DHT22;8258;51.020;4.248;2023-03-24T13:50:55;17.10;99.90
16301;DHT22;8258;51.020;4.248;2023-03-24T13:53:36;16.80;99.90
16301;DHT22;8258;51.020;4.248;2023-03-24T13:56:05;16.10;99.90
16301;DHT22;8258;51.020;4.248;2023-03-24T13:59:06;15.60;99.90
16301;DHT22;8258;51.020;4.248;2023-03-24T14:01:36;15.20;99.90
16301;DHT22;8258;51.020;4.248;2023-03-24T14:04:27;15.80;99.90
16301;DHT22;8258;51.020;4.248;2023-03-24T14:06:56;16.50;99.90
16301;DHT22;8258;51.020;4.248;2023-03-24T14:09:26;17.10;99.90
16301;DHT22;8258;51.020;4.248;2023-03-24T14:12:18;17.50;99.90
16301;DHT22;8258;51.020;4.248;2023-03-24T14:15:11;17.90;99.90
16301;DHT22;8258;51.020;4.248;2023-03-24T14:17:41;18.70;99.90
16301;DHT22;8258;51.020;4.248;2023-03-24T14:20:23;19.00;99.90
16301;DHT22;8258;51.020;4.248;2023-03-24T14:22:53;18.60;99.90
16301;DHT22;8258;51.020;4.248;2023-03-24T14:25:25;19.00;99.90
16301;DHT22;8258;51.020;4.248;2023-03-24T14:28:06;18.50;99.90
16301;DHT22;8258;51.020;4.248;2023-03-24T14:30:36;19.00;99.90
16301;DHT22;8258;51.020;4.248;2023-03-24T14:33:12;19.70;99.90
16301;DHT22;8258;51.020;4.248;2023-03-24T14:35:47;19.70;99.90
16301;DHT22;8258;51.020;4.248;2023-03-24T14:38:22;19.50;99.90
16301;DHT22;8258;51.020;4.248;2023-03-24T14:40:55;17.70;99.90
16301;DHT22;8258;51.020;4.248;2023-03-24T14:43:52;16.40;99.90
16301;DHT22;8258;51.020;4.248;2023-03-24T14:46:34;15.90;99.90
16301;DHT22;8258;51.020;4.248;2023-03-24T14:49:04;15.90;99.90
16301;DHT22;8258;51.020;4.248;2023-03-24T14:51:38;16.20;99.90
16301;DHT22;8258;51.020;4.248;2023-03-24T14:54:13;16.20;99.90
16301;DHT22;8258;51.020;4.248;2023-03-24T14:56:42;17.20;99.90
16301;DHT22;8258;51.020;4.248;2023-03-24T14:59:25;19.00;99.90
16301;DHT22;8258;51.020;4.248;2023-03-24T15:02:00;18.00;99.90
16301;DHT22;8258;51.020;4.248;2023-03-24T15:04:28;16.80;99.90
16301;DHT22;8258;51.020;4.248;2023-03-24T15:07:02;16.80;99.90
16301;DHT22;8258;51.020;4.248;2023-03-24T15:09:35;16.80;99.90
16301;DHT22;8258;51.020;4.248;2023-03-24T15:12:03;17.30;99.90
16301;DHT22;8258;51.020;4.248;2023-03-24T15:14:31;17.00;99.90
16301;DHT22;8258;51.020;4.248;2023-03-24T15:17:03;16.20;99.90
16301;DHT22;8258;51.020;4.248;2023-03-24T15:19:31;16.30;99.90
16301;DHT22;8258;51.020;4.248;2023-03-24T15:22:00;16.00;99.90
16301;DHT22;8258;51.020;4.248;2023-03-24T15:24:33;15.50;99.90
16301;DHT22;8258;51.020;4.248;2023-03-24T15:27:17;15.20;99.90
16301;DHT22;8258;51.020;4.248;2023-03-24T15:29:45;15.00;99.90
16301;DHT22;8258;51.020;4.248;2023-03-24T15:32:16;15.00;99.90
16301;DHT22;8258;51.020;4.248;2023-03-24T15:34:48;14.80;99.90
16301;DHT22;8258;51.020;4.248;2023-03-24T15:37:30;15.00;99.90
16301;DHT22;8258;51.020;4.248;2023-03-24T15:39:59;15.10;99.90
16301;DHT22;8258;51.020;4.248;2023-03-24T15:42:26;14.80;99.90
16301;DHT22;8258;51.020;4.248;2023-03-24T15:44:54;14.60;99.90
16301;DHT22;8258;51.020;4.248;2023-03-24T15:47:23;14.60;99.90
16301;DHT22;8258;51.020;4.248;2023-03-24T15:49:51;14.90;99.90
16301;DHT22;8258;51.020;4.248;2023-03-24T15:52:28;15.30;99.90
16301;DHT22;8258;51.020;4.248;2023-03-24T15:55:00;15.30;99.90
16301;DHT22;8258;51.020;4.248;2023-03-24T15:57:37;14.80;99.90
16301;DHT22;8258;51.020;4.248;2023-03-24T16:00:11;14.80;99.90
16301;DHT22;8258;51.020;4.248;2023-03-24T16:02:45;15.30;99.90
16301;DHT22;8258;51.020;4.248;2023-03-24T16:05:17;15.00;99.90
16301;DHT22;8258;51.020;4.248;2023-03-24T16:07:52;14.60;99.90
16301;DHT22;8258;51.020;4.248;2023-03-24T16:10:29;14.30;99.90
16301;DHT22;8258;51.020;4.248;2023-03-24T16:13:10;14.10;99.90
16301;DHT22;8258;51.020;4.248;2023-03-24T16:15:39;14.00;99.90
16301;DHT22;8258;51.020;4.248;2023-03-24T16:18:14;14.00;99.90
16301;DHT22;8258;51.020;4.248;2023-03-24T16:20:43;14.00;99.90
16301;DHT22;8258;51.020;4.248;2023-03-24T16:23:10;14.00;99.90
16301;DHT22;8258;51.020;4.248;2023-03-24T16:25:38;13.80;99.90
16301;DHT22;8258;51.020;4.248;2023-03-24T16:28:07;13.70;99.90
16301;DHT22;8258;51.020;4.248;2023-03-24T16:30:37;13.60;99.90
16301;DHT22;8258;51.020;4.248;2023-03-24T16:33:05;13.60;99.90
16301;DHT22;8258;51.020;4.248;2023-03-24T16:35:32;13.90;99.90
16301;DHT22;8258;51.020;4.248;2023-03-24T16:38:00;14.30;99.90
16301;DHT22;8258;51.020;4.248;2023-03-24T16:40:32;14.20;99.90
16301;DHT22;8258;51.020;4.248;2023-03-24T16:43:02;13.20;99.90